Trinity, Alabama
Current Conditions -  °F | °C
As of 4:53 PM on Wednesday 26 Nov 2014 (Local Time) from KDCU Reporting Station
Overcast Overcast  
Wind Chill: 50°   Ceiling: 6500
Heat Index: 50°   Visibility: 10mi
Dew Point: 32°   Wind: 8mph
Humidity: 50%   Direction: 170°S
Pressure: 30.02"   Gusts: NA
Location:  34.61°N, 87.09°W
Report Text: KDCU 262253Z AUTO 17007KT 10SM OVC065 10/00 A3002 RMK AO2 SLP168 T01000000
Loading
Personal Weather Stations






























Interactive Weather Map New forecast layout! Learn more

10-Day Weather Forecast

Advertisements
Track Severe Weather on mobile